sensor_id;sensor_type;location;lat;lon;timestamp;pressure;altitude;pressure_sealevel;temperature;humidity
31595;BME280;18200;48.726;8.892;2022-08-07T00:01:23;97345.03;;;25.23;31.69
31595;BME280;18200;48.726;8.892;2022-08-07T00:05:24;97345.72;;;24.70;33.90
31595;BME280;18200;48.726;8.892;2022-08-07T00:09:25;97344.97;;;24.98;33.48
31595;BME280;18200;48.726;8.892;2022-08-07T00:13:25;97357.97;;;25.10;33.77
31595;BME280;18200;48.726;8.892;2022-08-07T00:17:25;97359.78;;;24.72;33.97
31595;BME280;18200;48.726;8.892;2022-08-07T00:21:26;97354.53;;;24.48;34.33
31595;BME280;18200;48.726;8.892;2022-08-07T00:25:26;97349.38;;;24.50;33.44
31595;BME280;18200;48.726;8.892;2022-08-07T00:29:27;97349.25;;;24.25;33.29
31595;BME280;18200;48.726;8.892;2022-08-07T00:33:28;97347.81;;;24.49;31.77
31595;BME280;18200;48.726;8.892;2022-08-07T00:37:29;97349.06;;;24.16;34.47
31595;BME280;18200;48.726;8.892;2022-08-07T00:41:31;97358.00;;;24.04;34.63
31595;BME280;18200;48.726;8.892;2022-08-07T00:45:32;97348.13;;;23.55;35.98
31595;BME280;18200;48.726;8.892;2022-08-07T00:49:33;97351.91;;;23.77;36.06
31595;BME280;18200;48.726;8.892;2022-08-07T00:53:33;97355.19;;;23.72;35.18
31595;BME280;18200;48.726;8.892;2022-08-07T00:57:34;97345.78;;;22.78;37.74
31595;BME280;18200;48.726;8.892;2022-08-07T01:01:34;97335.44;;;23.05;36.86
31595;BME280;18200;48.726;8.892;2022-08-07T01:05:34;97332.72;;;23.61;35.50
31595;BME280;18200;48.726;8.892;2022-08-07T01:09:36;97339.22;;;23.83;35.57
31595;BME280;18200;48.726;8.892;2022-08-07T01:13:36;97321.56;;;24.00;35.18
31595;BME280;18200;48.726;8.892;2022-08-07T01:17:37;97330.75;;;23.77;35.32
31595;BME280;18200;48.726;8.892;2022-08-07T01:21:38;97331.44;;;23.30;36.12
31595;BME280;18200;48.726;8.892;2022-08-07T01:25:39;97320.81;;;23.32;36.73
31595;BME280;18200;48.726;8.892;2022-08-07T01:29:41;97325.88;;;23.33;36.03
31595;BME280;18200;48.726;8.892;2022-08-07T01:33:42;97321.03;;;23.01;37.01
31595;BME280;18200;48.726;8.892;2022-08-07T01:37:43;97330.09;;;23.38;35.75
31595;BME280;18200;48.726;8.892;2022-08-07T01:41:44;97328.06;;;23.58;35.87
31595;BME280;18200;48.726;8.892;2022-08-07T01:45:46;97325.22;;;23.45;36.05
31595;BME280;18200;48.726;8.892;2022-08-07T01:49:51;97326.66;;;23.14;36.89
31595;BME280;18200;48.726;8.892;2022-08-07T01:53:54;97319.91;;;22.99;36.32
31595;BME280;18200;48.726;8.892;2022-08-07T01:57:58;97314.34;;;23.22;36.29
31595;BME280;18200;48.726;8.892;2022-08-07T02:07:29;97313.75;;;22.75;36.97
31595;BME280;18200;48.726;8.892;2022-08-07T02:11:34;97310.50;;;22.61;37.39
31595;BME280;18200;48.726;8.892;2022-08-07T02:15:38;97307.56;;;23.10;36.11
31595;BME280;18200;48.726;8.892;2022-08-07T02:19:42;97307.91;;;22.93;36.38
31595;BME280;18200;48.726;8.892;2022-08-07T02:23:44;97312.75;;;23.05;36.24
31595;BME280;18200;48.726;8.892;2022-08-07T02:27:47;97305.09;;;22.96;36.32
31595;BME280;18200;48.726;8.892;2022-08-07T02:31:50;97300.38;;;23.17;36.12
31595;BME280;18200;48.726;8.892;2022-08-07T02:35:51;97295.28;;;23.15;35.82
31595;BME280;18200;48.726;8.892;2022-08-07T02:39:53;97293.84;;;23.10;36.16
31595;BME280;18200;48.726;8.892;2022-08-07T02:43:57;97294.13;;;22.96;36.32
31595;BME280;18200;48.726;8.892;2022-08-07T02:47:59;97292.50;;;22.99;36.48
31595;BME280;18200;48.726;8.892;2022-08-07T02:52:02;97291.88;;;22.91;36.54
31595;BME280;18200;48.726;8.892;2022-08-07T02:56:06;97282.34;;;22.60;37.33
31595;BME280;18200;48.726;8.892;2022-08-07T03:00:09;97285.56;;;22.32;37.12
31595;BME280;18200;48.726;8.892;2022-08-07T03:04:11;97290.47;;;21.98;38.62
31595;BME280;18200;48.726;8.892;2022-08-07T03:08:12;97287.16;;;22.10;37.76
31595;BME280;18200;48.726;8.892;2022-08-07T03:12:18;97293.19;;;21.75;40.03
31595;BME280;18200;48.726;8.892;2022-08-07T03:16:19;97288.97;;;22.39;37.89
31595;BME280;18200;48.726;8.892;2022-08-07T03:20:21;97294.03;;;22.18;38.32
31595;BME280;18200;48.726;8.892;2022-08-07T03:24:23;97294.38;;;22.43;37.42
31595;BME280;18200;48.726;8.892;2022-08-07T03:28:25;97292.38;;;22.24;38.00
31595;BME280;18200;48.726;8.892;2022-08-07T03:32:39;97293.75;;;22.55;37.56
31595;BME280;18200;48.726;8.892;2022-08-07T03:36:40;97294.53;;;21.90;38.06
31595;BME280;18200;48.726;8.892;2022-08-07T03:40:42;97280.53;;;22.30;37.97
31595;BME280;18200;48.726;8.892;2022-08-07T03:44:46;97295.53;;;22.22;38.22
31595;BME280;18200;48.726;8.892;2022-08-07T03:48:48;97294.63;;;22.29;37.21
31595;BME280;18200;48.726;8.892;2022-08-07T03:52:51;97295.06;;;22.04;38.77
31595;BME280;18200;48.726;8.892;2022-08-07T03:56:54;97288.94;;;21.97;38.30
31595;BME280;18200;48.726;8.892;2022-08-07T04:00:58;97297.03;;;22.27;38.03
31595;BME280;18200;48.726;8.892;2022-08-07T04:04:59;97287.56;;;22.31;37.26
31595;BME280;18200;48.726;8.892;2022-08-07T04:09:01;97293.63;;;21.46;39.81
31595;BME280;18200;48.726;8.892;2022-08-07T04:13:03;97306.81;;;21.51;39.77
31595;BME280;18200;48.726;8.892;2022-08-07T04:17:04;97309.00;;;21.63;39.72
31595;BME280;18200;48.726;8.892;2022-08-07T04:21:05;97309.88;;;21.57;38.88
31595;BME280;18200;48.726;8.892;2022-08-07T04:25:07;97320.06;;;21.53;39.74
31595;BME280;18200;48.726;8.892;2022-08-07T04:29:08;97311.06;;;21.83;38.98
31595;BME280;18200;48.726;8.892;2022-08-07T04:33:12;97318.91;;;22.27;38.39
31595;BME280;18200;48.726;8.892;2022-08-07T04:37:16;97311.72;;;21.90;39.31
31595;BME280;18200;48.726;8.892;2022-08-07T04:41:17;97305.25;;;22.04;37.68
31595;BME280;18200;48.726;8.892;2022-08-07T04:45:19;97313.75;;;21.86;38.70
31595;BME280;18200;48.726;8.892;2022-08-07T04:53:50;97313.44;;;22.27;38.56
31595;BME280;18200;48.726;8.892;2022-08-07T04:58:09;97311.66;;;21.94;39.16
31595;BME280;18200;48.726;8.892;2022-08-07T05:02:23;97315.50;;;22.00;39.04
31595;BME280;18200;48.726;8.892;2022-08-07T05:06:34;97315.63;;;22.35;37.92
31595;BME280;18200;48.726;8.892;2022-08-07T05:10:53;97319.00;;;22.43;37.91
31595;BME280;18200;48.726;8.892;2022-08-07T05:15:28;97309.59;;;22.67;36.65
31595;BME280;18200;48.726;8.892;2022-08-07T05:19:37;97308.03;;;22.66;36.53
31595;BME280;18200;48.726;8.892;2022-08-07T05:23:52;97323.78;;;22.62;37.57
31595;BME280;18200;48.726;8.892;2022-08-07T05:27:54;97327.31;;;23.02;36.34
31595;BME280;18200;48.726;8.892;2022-08-07T05:31:56;97332.00;;;23.21;36.13
31595;BME280;18200;48.726;8.892;2022-08-07T05:36:04;97328.94;;;23.55;35.16
31595;BME280;18200;48.726;8.892;2022-08-07T05:40:07;97335.47;;;23.77;34.20
31595;BME280;18200;48.726;8.892;2022-08-07T05:44:09;97342.81;;;23.64;35.04
31595;BME280;18200;48.726;8.892;2022-08-07T05:48:13;97350.94;;;23.87;35.29
31595;BME280;18200;48.726;8.892;2022-08-07T05:52:18;97341.78;;;24.10;34.19
31595;BME280;18200;48.726;8.892;2022-08-07T05:56:19;97350.25;;;24.15;34.71
31595;BME280;18200;48.726;8.892;2022-08-07T06:00:24;97349.06;;;24.16;35.19
31595;BME280;18200;48.726;8.892;2022-08-07T06:04:38;97353.66;;;24.51;34.79
31595;BME280;18200;48.726;8.892;2022-08-07T06:08:41;97357.22;;;24.64;34.46
31595;BME280;18200;48.726;8.892;2022-08-07T06:12:42;97354.19;;;24.91;34.46
31595;BME280;18200;48.726;8.892;2022-08-07T06:16:46;97362.22;;;24.98;34.24
31595;BME280;18200;48.726;8.892;2022-08-07T06:20:47;97350.03;;;24.99;34.25
31595;BME280;18200;48.726;8.892;2022-08-07T06:24:48;97349.28;;;25.65;33.17
31595;BME280;18200;48.726;8.892;2022-08-07T06:28:51;97349.84;;;25.60;33.69
31595;BME280;18200;48.726;8.892;2022-08-07T06:32:52;97345.44;;;25.63;34.28
31595;BME280;18200;48.726;8.892;2022-08-07T06:36:53;97342.66;;;25.88;34.25
31595;BME280;18200;48.726;8.892;2022-08-07T06:41:01;97336.84;;;26.24;33.80
31595;BME280;18200;48.726;8.892;2022-08-07T06:45:10;97336.31;;;26.50;34.13
31595;BME280;18200;48.726;8.892;2022-08-07T06:49:11;97338.06;;;25.97;35.44
31595;BME280;18200;48.726;8.892;2022-08-07T06:53:13;97337.28;;;25.97;35.79
31595;BME280;18200;48.726;8.892;2022-08-07T06:57:15;97340.34;;;27.14;34.47
31595;BME280;18200;48.726;8.892;2022-08-07T07:01:16;97338.78;;;27.13;34.21
31595;BME280;18200;48.726;8.892;2022-08-07T07:05:19;97337.13;;;27.99;33.88
31595;BME280;18200;48.726;8.892;2022-08-07T07:09:25;97335.38;;;27.83;35.06
31595;BME280;18200;48.726;8.892;2022-08-07T07:18:55;97336.03;;;28.72;33.36
31595;BME280;18200;48.726;8.892;2022-08-07T07:22:56;97334.78;;;28.73;33.18
31595;BME280;18200;48.726;8.892;2022-08-07T07:26:59;97330.78;;;29.01;33.29
31595;BME280;18200;48.726;8.892;2022-08-07T07:31:05;97325.81;;;29.42;32.89
31595;BME280;18200;48.726;8.892;2022-08-07T07:35:09;97316.53;;;29.96;30.35
31595;BME280;18200;48.726;8.892;2022-08-07T07:39:10;97326.59;;;29.84;30.75
31595;BME280;18200;48.726;8.892;2022-08-07T07:43:15;97326.25;;;29.49;31.41
31595;BME280;18200;48.726;8.892;2022-08-07T07:47:18;97326.34;;;30.29;30.66
31595;BME280;18200;48.726;8.892;2022-08-07T07:51:20;97316.25;;;30.64;28.88
31595;BME280;18200;48.726;8.892;2022-08-07T07:55:22;97318.16;;;30.58;28.93
31595;BME280;18200;48.726;8.892;2022-08-07T07:59:25;97314.44;;;31.00;28.36
31595;BME280;18200;48.726;8.892;2022-08-07T08:03:27;97318.34;;;30.31;29.50
31595;BME280;18200;48.726;8.892;2022-08-07T08:07:30;97308.50;;;31.07;28.33
31595;BME280;18200;48.726;8.892;2022-08-07T08:11:31;97311.00;;;29.96;28.98
31595;BME280;18200;48.726;8.892;2022-08-07T08:15:35;97314.72;;;30.63;28.69
31595;BME280;18200;48.726;8.892;2022-08-07T08:19:38;97318.09;;;31.64;27.34
31595;BME280;18200;48.726;8.892;2022-08-07T08:23:39;97303.84;;;31.91;26.80
31595;BME280;18200;48.726;8.892;2022-08-07T08:28:02;97316.56;;;31.05;27.98
31595;BME280;18200;48.726;8.892;2022-08-07T08:32:05;97302.38;;;31.61;27.60
31595;BME280;18200;48.726;8.892;2022-08-07T08:36:09;97298.75;;;32.25;27.13
31595;BME280;18200;48.726;8.892;2022-08-07T08:40:16;97298.66;;;31.99;27.06
31595;BME280;18200;48.726;8.892;2022-08-07T08:44:26;97305.91;;;31.18;26.95
31595;BME280;18200;48.726;8.892;2022-08-07T08:48:35;97308.91;;;31.44;26.88
31595;BME280;18200;48.726;8.892;2022-08-07T08:52:49;97297.78;;;31.93;26.12
31595;BME280;18200;48.726;8.892;2022-08-07T08:56:52;97304.38;;;32.10;25.89
31595;BME280;18200;48.726;8.892;2022-08-07T09:00:59;97299.28;;;33.09;24.55
31595;BME280;18200;48.726;8.892;2022-08-07T09:18:15;97290.97;;;32.08;24.31
31595;BME280;18200;48.726;8.892;2022-08-07T09:26:45;97294.25;;;33.13;22.93
31595;BME280;18200;48.726;8.892;2022-08-07T09:31:02;97297.75;;;32.62;22.79
31595;BME280;18200;48.726;8.892;2022-08-07T09:44:08;97293.25;;;31.75;23.41
31595;BME280;18200;48.726;8.892;2022-08-07T09:48:26;97295.06;;;31.78;22.93
31595;BME280;18200;48.726;8.892;2022-08-07T09:52:34;97281.88;;;32.28;22.13
31595;BME280;18200;48.726;8.892;2022-08-07T09:57:00;97292.06;;;33.85;20.93
31595;BME280;18200;48.726;8.892;2022-08-07T10:01:07;97297.78;;;33.71;20.11
31595;BME280;18200;48.726;8.892;2022-08-07T10:10:07;97267.25;;;34.46;19.92
31595;BME280;18200;48.726;8.892;2022-08-07T10:31:14;97241.25;;;34.93;19.78
31595;BME280;18200;48.726;8.892;2022-08-07T10:44:16;97234.44;;;34.94;19.03
31595;BME280;18200;48.726;8.892;2022-08-07T10:53:22;97233.44;;;35.31;17.81
31595;BME280;18200;48.726;8.892;2022-08-07T10:57:51;97227.59;;;35.12;18.08
31595;BME280;18200;48.726;8.892;2022-08-07T11:06:20;97218.78;;;36.26;16.84
31595;BME280;18200;48.726;8.892;2022-08-07T11:10:44;97219.22;;;35.29;18.36
31595;BME280;18200;48.726;8.892;2022-08-07T11:15:13;97210.59;;;35.16;18.36
31595;BME280;18200;48.726;8.892;2022-08-07T11:19:23;97202.44;;;35.51;18.23
31595;BME280;18200;48.726;8.892;2022-08-07T11:23:38;97213.78;;;36.03;17.43
31595;BME280;18200;48.726;8.892;2022-08-07T11:36:00;97195.69;;;36.09;17.49
31595;BME280;18200;48.726;8.892;2022-08-07T11:44:48;97193.69;;;36.56;17.15
31595;BME280;18200;48.726;8.892;2022-08-07T11:49:22;97193.00;;;36.44;16.26
31595;BME280;18200;48.726;8.892;2022-08-07T12:10:44;97175.69;;;36.40;17.73
31595;BME280;18200;48.726;8.892;2022-08-07T12:15:02;97179.66;;;36.62;16.97
31595;BME280;18200;48.726;8.892;2022-08-07T12:27:28;97163.59;;;35.08;18.57
31595;BME280;18200;48.726;8.892;2022-08-07T12:31:36;97151.59;;;35.58;17.88
31595;BME280;18200;48.726;8.892;2022-08-07T12:35:38;97155.09;;;36.79;17.21
31595;BME280;18200;48.726;8.892;2022-08-07T12:39:40;97148.38;;;35.09;18.20
31595;BME280;18200;48.726;8.892;2022-08-07T12:43:42;97136.91;;;34.96;19.26
31595;BME280;18200;48.726;8.892;2022-08-07T12:47:48;97149.84;;;37.29;16.64
31595;BME280;18200;48.726;8.892;2022-08-07T12:56:35;97152.00;;;38.33;15.91
31595;BME280;18200;48.726;8.892;2022-08-07T13:00:51;97151.47;;;36.84;17.29
31595;BME280;18200;48.726;8.892;2022-08-07T13:05:21;97146.22;;;35.71;17.64
31595;BME280;18200;48.726;8.892;2022-08-07T13:23:41;97118.59;;;38.48;15.82
31595;BME280;18200;48.726;8.892;2022-08-07T13:27:48;97119.53;;;39.72;15.37
31595;BME280;18200;48.726;8.892;2022-08-07T13:32:02;97105.44;;;38.88;15.66
31595;BME280;18200;48.726;8.892;2022-08-07T13:36:12;97106.84;;;37.69;16.12
31595;BME280;18200;48.726;8.892;2022-08-07T13:40:26;97106.09;;;38.62;15.47
31595;BME280;18200;48.726;8.892;2022-08-07T13:44:33;97111.28;;;39.87;15.13
31595;BME280;18200;48.726;8.892;2022-08-07T13:48:37;97115.06;;;36.54;16.58
31595;BME280;18200;48.726;8.892;2022-08-07T13:52:41;97095.78;;;34.80;19.00
31595;BME280;18200;48.726;8.892;2022-08-07T13:56:44;97087.69;;;37.49;16.57
31595;BME280;18200;48.726;8.892;2022-08-07T14:00:46;97086.81;;;37.78;16.03
31595;BME280;18200;48.726;8.892;2022-08-07T14:04:50;97075.72;;;37.00;16.28
31595;BME280;18200;48.726;8.892;2022-08-07T14:08:53;97080.41;;;37.41;16.38
31595;BME280;18200;48.726;8.892;2022-08-07T14:12:56;97081.94;;;36.52;17.04
31595;BME280;18200;48.726;8.892;2022-08-07T14:17:00;97068.69;;;39.70;15.50
31595;BME280;18200;48.726;8.892;2022-08-07T14:21:26;97079.03;;;36.99;16.62
31595;BME280;18200;48.726;8.892;2022-08-07T14:25:31;97063.97;;;36.42;17.41
31595;BME280;18200;48.726;8.892;2022-08-07T14:29:35;97056.19;;;37.62;16.57
31595;BME280;18200;48.726;8.892;2022-08-07T14:33:36;97063.41;;;40.00;15.57
31595;BME280;18200;48.726;8.892;2022-08-07T14:37:37;97056.00;;;39.24;14.88
31595;BME280;18200;48.726;8.892;2022-08-07T14:41:39;97063.03;;;38.22;15.75
31595;BME280;18200;48.726;8.892;2022-08-07T14:45:46;97057.38;;;39.04;15.10
31595;BME280;18200;48.726;8.892;2022-08-07T14:49:49;97051.00;;;39.82;14.66
31595;BME280;18200;48.726;8.892;2022-08-07T14:53:51;97054.94;;;36.90;16.40
31595;BME280;18200;48.726;8.892;2022-08-07T14:57:52;97057.41;;;38.41;15.67
31595;BME280;18200;48.726;8.892;2022-08-07T15:01:56;97056.88;;;40.52;14.83
31595;BME280;18200;48.726;8.892;2022-08-07T15:05:58;97051.75;;;38.28;15.30
31595;BME280;18200;48.726;8.892;2022-08-07T15:09:59;97053.47;;;39.07;14.80
31595;BME280;18200;48.726;8.892;2022-08-07T15:14:03;97051.06;;;40.57;13.67
31595;BME280;18200;48.726;8.892;2022-08-07T15:18:18;97047.78;;;38.68;15.08
31595;BME280;18200;48.726;8.892;2022-08-07T15:22:23;97052.16;;;36.14;17.02
31595;BME280;18200;48.726;8.892;2022-08-07T15:26:43;97040.91;;;40.00;14.16
31595;BME280;18200;48.726;8.892;2022-08-07T15:30:46;97043.81;;;38.76;15.22
31595;BME280;18200;48.726;8.892;2022-08-07T15:34:50;97041.28;;;39.57;14.65
31595;BME280;18200;48.726;8.892;2022-08-07T15:38:52;97035.03;;;37.18;16.25
31595;BME280;18200;48.726;8.892;2022-08-07T15:42:56;97034.41;;;38.74;15.20
31595;BME280;18200;48.726;8.892;2022-08-07T15:47:02;97040.97;;;40.41;13.43
31595;BME280;18200;48.726;8.892;2022-08-07T15:51:07;97029.81;;;38.08;15.41
31595;BME280;18200;48.726;8.892;2022-08-07T15:55:10;97033.16;;;40.47;13.96
31595;BME280;18200;48.726;8.892;2022-08-07T15:59:13;97036.44;;;40.04;13.60
31595;BME280;18200;48.726;8.892;2022-08-07T16:03:21;97028.47;;;40.70;13.30
31595;BME280;18200;48.726;8.892;2022-08-07T16:07:26;97030.56;;;40.36;13.56
31595;BME280;18200;48.726;8.892;2022-08-07T16:16:02;97024.22;;;39.42;14.46
31595;BME280;18200;48.726;8.892;2022-08-07T16:24:56;97018.31;;;38.43;15.00
31595;BME280;18200;48.726;8.892;2022-08-07T16:33:11;97015.03;;;40.22;13.21
31595;BME280;18200;48.726;8.892;2022-08-07T16:37:30;97018.50;;;40.49;13.80
31595;BME280;18200;48.726;8.892;2022-08-07T16:41:48;97010.25;;;39.63;14.14
31595;BME280;18200;48.726;8.892;2022-08-07T16:50:20;97019.31;;;40.77;13.26
31595;BME280;18200;48.726;8.892;2022-08-07T16:59:12;97017.03;;;41.53;12.71
31595;BME280;18200;48.726;8.892;2022-08-07T17:03:19;97012.56;;;40.39;13.64
31595;BME280;18200;48.726;8.892;2022-08-07T17:07:44;97013.88;;;42.15;12.85
31595;BME280;18200;48.726;8.892;2022-08-07T17:11:54;97021.13;;;38.43;14.39
31595;BME280;18200;48.726;8.892;2022-08-07T17:16:04;97010.72;;;37.02;15.49
31595;BME280;18200;48.726;8.892;2022-08-07T17:24:52;97018.84;;;36.51;16.00
31595;BME280;18200;48.726;8.892;2022-08-07T17:29:05;97028.91;;;35.95;15.82
31595;BME280;18200;48.726;8.892;2022-08-07T17:33:28;97026.91;;;36.61;15.64
31595;BME280;18200;48.726;8.892;2022-08-07T17:37:45;97033.31;;;36.55;15.58
31595;BME280;18200;48.726;8.892;2022-08-07T17:41:58;97031.09;;;35.67;16.00
31595;BME280;18200;48.726;8.892;2022-08-07T17:50:18;97034.59;;;36.84;15.65
31595;BME280;18200;48.726;8.892;2022-08-07T17:54:46;97036.81;;;36.62;15.57
31595;BME280;18200;48.726;8.892;2022-08-07T18:02:57;97035.97;;;36.07;15.99
31595;BME280;18200;48.726;8.892;2022-08-07T18:11:09;97041.66;;;35.85;16.54
31595;BME280;18200;48.726;8.892;2022-08-07T18:15:54;97038.38;;;35.18;17.06
31595;BME280;18200;48.726;8.892;2022-08-07T18:19:59;97052.78;;;36.37;16.26
31595;BME280;18200;48.726;8.892;2022-08-07T18:28:26;97065.06;;;36.64;16.82
31595;BME280;18200;48.726;8.892;2022-08-07T18:37:04;97073.06;;;35.50;17.04
31595;BME280;18200;48.726;8.892;2022-08-07T18:41:55;97082.22;;;36.08;16.41
31595;BME280;18200;48.726;8.892;2022-08-07T18:45:59;97084.34;;;35.91;16.86
31595;BME280;18200;48.726;8.892;2022-08-07T19:03:24;97112.47;;;35.36;17.55
31595;BME280;18200;48.726;8.892;2022-08-07T19:12:18;97117.38;;;34.96;17.79
31595;BME280;18200;48.726;8.892;2022-08-07T19:24:58;97134.13;;;34.74;18.68
31595;BME280;18200;48.726;8.892;2022-08-07T19:29:03;97145.44;;;34.21;20.07
31595;BME280;18200;48.726;8.892;2022-08-07T19:33:07;97142.69;;;33.31;20.88
31595;BME280;18200;48.726;8.892;2022-08-07T19:37:11;97150.25;;;33.61;20.00
31595;BME280;18200;48.726;8.892;2022-08-07T19:41:15;97157.63;;;33.33;20.57
31595;BME280;18200;48.726;8.892;2022-08-07T19:45:22;97151.50;;;32.92;21.09
31595;BME280;18200;48.726;8.892;2022-08-07T19:49:25;97154.09;;;31.99;21.71
31595;BME280;18200;48.726;8.892;2022-08-07T19:53:26;97147.19;;;32.60;21.44
31595;BME280;18200;48.726;8.892;2022-08-07T20:01:32;97148.28;;;32.68;21.44
31595;BME280;18200;48.726;8.892;2022-08-07T20:05:34;97154.38;;;32.47;21.86
31595;BME280;18200;48.726;8.892;2022-08-07T20:09:43;97151.94;;;32.08;22.59
31595;BME280;18200;48.726;8.892;2022-08-07T20:13:48;97155.47;;;31.34;22.99
31595;BME280;18200;48.726;8.892;2022-08-07T20:17:52;97154.00;;;31.04;23.52
31595;BME280;18200;48.726;8.892;2022-08-07T20:21:54;97154.50;;;30.88;23.87
31595;BME280;18200;48.726;8.892;2022-08-07T20:26:02;97141.88;;;30.57;24.13
31595;BME280;18200;48.726;8.892;2022-08-07T20:30:04;97143.69;;;30.90;24.00
31595;BME280;18200;48.726;8.892;2022-08-07T20:34:05;97147.13;;;30.55;23.82
31595;BME280;18200;48.726;8.892;2022-08-07T20:38:07;97142.72;;;30.34;23.37
31595;BME280;18200;48.726;8.892;2022-08-07T20:42:11;97147.06;;;30.26;24.65
31595;BME280;18200;48.726;8.892;2022-08-07T20:46:12;97146.59;;;30.28;24.32
31595;BME280;18200;48.726;8.892;2022-08-07T20:50:13;97157.25;;;30.58;24.13
31595;BME280;18200;48.726;8.892;2022-08-07T20:54:14;97142.81;;;30.02;25.60
31595;BME280;18200;48.726;8.892;2022-08-07T20:58:16;97156.00;;;29.92;25.94
31595;BME280;18200;48.726;8.892;2022-08-07T21:02:20;97146.91;;;29.92;25.89
31595;BME280;18200;48.726;8.892;2022-08-07T21:06:40;97141.72;;;29.61;26.29
31595;BME280;18200;48.726;8.892;2022-08-07T21:10:43;97144.00;;;29.86;25.85
31595;BME280;18200;48.726;8.892;2022-08-07T21:14:45;97146.66;;;29.57;27.02
31595;BME280;18200;48.726;8.892;2022-08-07T21:18:48;97146.91;;;29.68;26.68
31595;BME280;18200;48.726;8.892;2022-08-07T21:22:50;97146.50;;;29.37;27.77
31595;BME280;18200;48.726;8.892;2022-08-07T21:27:00;97148.97;;;28.93;27.57
31595;BME280;18200;48.726;8.892;2022-08-07T21:31:19;97143.41;;;28.42;27.89
31595;BME280;18200;48.726;8.892;2022-08-07T21:35:28;97154.59;;;27.66;29.26
31595;BME280;18200;48.726;8.892;2022-08-07T21:39:53;97152.41;;;27.43;29.52
31595;BME280;18200;48.726;8.892;2022-08-07T21:48:13;97157.53;;;27.99;29.57
31595;BME280;18200;48.726;8.892;2022-08-07T21:52:26;97160.94;;;28.21;28.79
31595;BME280;18200;48.726;8.892;2022-08-07T21:56:47;97161.06;;;27.81;29.75
31595;BME280;18200;48.726;8.892;2022-08-07T22:00:51;97160.91;;;28.03;29.32
31595;BME280;18200;48.726;8.892;2022-08-07T22:04:57;97170.34;;;27.47;30.10
31595;BME280;18200;48.726;8.892;2022-08-07T22:09:03;97168.00;;;27.37;29.55
31595;BME280;18200;48.726;8.892;2022-08-07T22:13:07;97168.81;;;27.46;29.74
31595;BME280;18200;48.726;8.892;2022-08-07T22:17:15;97158.84;;;27.00;30.45
31595;BME280;18200;48.726;8.892;2022-08-07T22:21:25;97162.31;;;27.31;29.98
31595;BME280;18200;48.726;8.892;2022-08-07T22:25:38;97161.59;;;27.09;30.24
31595;BME280;18200;48.726;8.892;2022-08-07T22:29:51;97161.97;;;27.20;29.97
31595;BME280;18200;48.726;8.892;2022-08-07T22:33:59;97161.72;;;26.44;30.26
31595;BME280;18200;48.726;8.892;2022-08-07T22:38:21;97164.50;;;26.75;30.74
31595;BME280;18200;48.726;8.892;2022-08-07T22:42:27;97158.25;;;27.14;30.30
31595;BME280;18200;48.726;8.892;2022-08-07T22:50:50;97158.63;;;26.64;30.22
31595;BME280;18200;48.726;8.892;2022-08-07T22:55:25;97157.66;;;26.79;30.24
31595;BME280;18200;48.726;8.892;2022-08-07T23:12:24;97162.75;;;26.16;31.34
31595;BME280;18200;48.726;8.892;2022-08-07T23:16:44;97160.88;;;25.45;32.44
31595;BME280;18200;48.726;8.892;2022-08-07T23:21:01;97161.22;;;25.81;31.96
31595;BME280;18200;48.726;8.892;2022-08-07T23:25:10;97158.53;;;25.18;32.49
31595;BME280;18200;48.726;8.892;2022-08-07T23:29:37;97155.41;;;25.66;31.92
31595;BME280;18200;48.726;8.892;2022-08-07T23:42:57;97145.44;;;24.72;33.52
31595;BME280;18200;48.726;8.892;2022-08-07T23:47:11;97147.56;;;25.05;33.48
31595;BME280;18200;48.726;8.892;2022-08-07T23:51:22;97143.66;;;25.28;33.39
31595;BME280;18200;48.726;8.892;2022-08-07T23:55:37;97143.91;;;25.21;33.08
31595;BME280;18200;48.726;8.892;2022-08-07T23:59:54;97151.53;;;25.04;33.40
